Time;durP1;ratioP1;P1;durP2;ratioP2;P2;SDS_P1;SDS_P2;PMS_P1;PMS_P2;Temp;Humidity;BMP_temperature;BMP_pressure;BME280_temperature;BME280_humidity;BME280_pressure;Samples;Min_cycle;Max_cycle;Signal;HPM_P1;HPM_P2
2021/05/07 00:00:58;;;;;;;7.20;6.50;;;8.90;88.50;;;;;;5011517;28;20097;-62
2021/05/07 00:03:23;;;;;;;9.15;7.05;;;8.80;89.10;;;;;;5026364;28;20036;-63
2021/05/07 00:05:56;;;;;;;7.80;7.00;;;8.90;89.00;;;;;;5015062;28;20038;-63
2021/05/07 00:08:30;;;;;;;7.80;6.78;;;8.80;89.70;;;;;;5026397;28;20454;-63
2021/05/07 00:10:58;;;;;;;9.02;7.57;;;8.70;90.00;;;;;;5043392;28;20385;-63
2021/05/07 00:13:23;;;;;;;8.75;6.47;;;8.70;90.00;;;;;;5014940;28;20505;-62
2021/05/07 00:15:50;;;;;;;7.05;6.35;;;8.70;90.20;;;;;;5026113;28;20071;-61
2021/05/07 00:18:15;;;;;;;7.57;6.78;;;8.60;90.30;;;;;;5026983;28;20106;-62
2021/05/07 00:20:41;;;;;;;7.97;7.18;;;8.60;90.40;;;;;;5011867;28;20066;-62
2021/05/07 00:23:07;;;;;;;8.15;6.95;;;8.70;90.20;;;;;;5018265;28;20029;-61
2021/05/07 00:25:33;;;;;;;8.82;6.90;;;8.70;90.40;;;;;;5027790;28;20038;-62
2021/05/07 00:28:03;;;;;;;7.35;6.45;;;8.80;90.00;;;;;;5028052;28;20049;-63
2021/05/07 00:30:29;;;;;;;8.75;7.85;;;8.70;90.30;;;;;;5020863;28;20033;-63
2021/05/07 00:32:55;;;;;;;7.75;6.80;;;8.80;90.20;;;;;;5033224;28;20115;-63
2021/05/07 00:35:21;;;;;;;9.90;6.85;;;8.80;90.10;;;;;;5019098;28;20052;-63
2021/05/07 00:37:47;;;;;;;8.43;6.80;;;8.90;90.00;;;;;;5025372;28;20052;-62
2021/05/07 00:40:13;;;;;;;8.25;6.97;;;8.90;90.10;;;;;;5025065;28;20401;-62
2021/05/07 00:42:38;;;;;;;8.85;7.95;;;8.70;90.40;;;;;;5021369;28;20055;-62
2021/05/07 00:45:06;;;;;;;8.68;7.78;;;8.70;90.50;;;;;;5029001;28;20472;-63
2021/05/07 00:47:37;;;;;;;8.32;7.50;;;8.60;90.60;;;;;;5028379;28;20030;-61
2021/05/07 00:50:05;;;;;;;8.07;7.28;;;8.70;90.70;;;;;;5041837;28;20033;-63
2021/05/07 00:52:33;;;;;;;8.48;7.57;;;8.60;90.80;;;;;;5016593;28;20045;-62
2021/05/07 00:55:01;;;;;;;8.75;7.85;;;8.70;90.70;;;;;;5031807;28;20052;-63
2021/05/07 00:57:28;;;;;;;10.95;7.70;;;8.70;90.70;;;;;;5043158;28;20100;-63
2021/05/07 00:59:53;;;;;;;9.02;8.10;;;8.60;91.00;;;;;;5023743;28;20065;-63
2021/05/07 01:02:19;;;;;;;8.35;7.18;;;8.70;90.90;;;;;;5015160;28;20069;-62
2021/05/07 01:04:45;;;;;;;8.40;7.53;;;8.60;91.20;;;;;;5032199;28;20061;-62
2021/05/07 01:07:10;;;;;;;8.95;7.85;;;8.50;91.20;;;;;;5015288;28;20038;-62
2021/05/07 01:09:36;;;;;;;9.93;8.43;;;8.40;91.80;;;;;;5036822;28;20502;-62
2021/05/07 01:12:02;;;;;;;10.63;8.18;;;8.30;92.00;;;;;;5015485;28;20558;-63
2021/05/07 01:14:27;;;;;;;9.80;8.52;;;8.30;92.20;;;;;;5032083;28;20034;-61
2021/05/07 01:16:53;;;;;;;11.82;8.73;;;8.30;92.30;;;;;;5014622;28;20038;-64
2021/05/07 01:19:18;;;;;;;11.20;9.40;;;8.30;92.50;;;;;;5032253;28;20044;-62
2021/05/07 01:21:45;;;;;;;11.43;8.68;;;8.10;92.80;;;;;;5015084;28;20033;-64
2021/05/07 01:24:13;;;;;;;12.07;10.20;;;8.10;92.90;;;;;;5056983;28;20032;-61
2021/05/07 01:26:42;;;;;;;11.80;10.02;;;8.00;93.50;;;;;;5016763;28;20034;-62
2021/05/07 01:29:13;;;;;;;11.20;9.50;;;7.80;93.70;;;;;;5034438;28;20099;-63
2021/05/07 01:31:43;;;;;;;10.82;9.73;;;7.80;93.80;;;;;;5031234;28;20060;-62
2021/05/07 01:34:09;;;;;;;12.60;10.30;;;7.60;94.20;;;;;;5049349;28;20025;-62
2021/05/07 01:36:35;;;;;;;13.43;11.23;;;7.50;94.60;;;;;;5020314;28;20034;-60
2021/05/07 01:39:01;;;;;;;16.50;10.43;;;7.50;95.20;;;;;;5036236;28;20040;-62
2021/05/07 01:41:27;;;;;;;11.90;10.55;;;7.40;94.90;;;;;;5031427;28;20417;-63
2021/05/07 01:43:52;;;;;;;13.60;10.68;;;7.50;95.00;;;;;;5018451;28;20055;-65
2021/05/07 01:46:18;;;;;;;11.18;9.98;;;7.40;95.20;;;;;;5035358;28;20042;-65
2021/05/07 01:48:43;;;;;;;12.95;10.93;;;7.50;95.10;;;;;;5046634;28;20128;-66
2021/05/07 01:51:09;;;;;;;10.52;9.43;;;7.40;95.50;;;;;;5025695;28;20064;-65
2021/05/07 01:53:35;;;;;;;11.13;9.90;;;7.60;94.90;;;;;;5026905;28;20044;-66
2021/05/07 01:56:01;;;;;;;12.55;11.25;;;7.50;94.80;;;;;;5014986;28;20026;-65
2021/05/07 01:58:26;;;;;;;13.85;10.98;;;7.40;95.60;;;;;;5035020;28;20044;-65
2021/05/07 02:00:52;;;;;;;11.32;10.00;;;7.50;95.50;;;;;;5019023;28;20088;-64
2021/05/07 02:03:18;;;;;;;12.20;10.85;;;7.60;95.20;;;;;;5013688;28;20064;-63
2021/05/07 02:05:43;;;;;;;14.50;11.45;;;7.60;95.30;;;;;;5012439;28;20497;-63
2021/05/07 02:08:11;;;;;;;17.10;11.60;;;7.50;95.40;;;;;;5014610;28;20041;-63
2021/05/07 02:10:38;;;;;;;15.43;12.40;;;7.40;95.80;;;;;;5012966;28;20049;-64
2021/05/07 02:13:09;;;;;;;13.80;10.88;;;7.30;96.00;;;;;;5014409;28;20033;-63
2021/05/07 02:15:35;;;;;;;15.07;11.45;;;7.50;95.70;;;;;;5012726;28;20440;-63
2021/05/07 02:18:02;;;;;;;15.00;12.20;;;7.50;95.90;;;;;;5015094;28;20037;-63
2021/05/07 02:20:29;;;;;;;16.13;11.43;;;7.50;95.60;;;;;;5012480;28;20438;-62
2021/05/07 02:22:55;;;;;;;12.98;11.15;;;7.60;95.70;;;;;;5014566;28;20124;-64
2021/05/07 02:25:25;;;;;;;12.60;10.70;;;7.60;95.00;;;;;;5012735;28;20129;-64
2021/05/07 02:27:53;;;;;;;13.25;10.60;;;7.70;95.20;;;;;;5024911;28;20920;-64
2021/05/07 02:30:22;;;;;;;12.82;10.93;;;7.90;94.50;;;;;;5022790;28;20030;-63
2021/05/07 02:32:47;;;;;;;12.63;10.68;;;7.90;94.40;;;;;;5028450;28;20496;-64
2021/05/07 02:35:14;;;;;;;12.57;10.43;;;8.00;94.10;;;;;;5020827;28;20096;-63
2021/05/07 02:37:40;;;;;;;11.57;10.10;;;7.90;94.10;;;;;;5012825;28;20772;-64
2021/05/07 02:40:07;;;;;;;11.77;10.57;;;7.90;94.30;;;;;;5023062;28;20061;-63
2021/05/07 02:42:34;;;;;;;13.15;10.52;;;7.90;94.50;;;;;;5012378;28;20061;-64
2021/05/07 02:45:03;;;;;;;11.57;10.38;;;7.80;94.40;;;;;;5023971;28;20047;-63
2021/05/07 02:47:32;;;;;;;11.55;10.10;;;7.80;94.60;;;;;;5012078;28;20042;-62
2021/05/07 02:49:58;;;;;;;11.90;10.55;;;7.80;94.80;;;;;;5033650;28;20432;-63
2021/05/07 02:52:24;;;;;;;11.25;10.13;;;7.70;95.00;;;;;;5018788;28;20046;-66
2021/05/07 02:54:53;;;;;;;11.75;10.38;;;7.70;94.80;;;;;;5012134;28;20563;-65
2021/05/07 02:57:19;;;;;;;12.88;10.57;;;7.70;94.50;;;;;;5017752;28;20036;-65
2021/05/07 02:59:44;;;;;;;12.25;10.73;;;7.80;94.70;;;;;;5011979;28;20049;-65
2021/05/07 03:02:10;;;;;;;12.05;10.50;;;7.90;94.70;;;;;;5016557;28;20038;-64
2021/05/07 03:04:35;;;;;;;13.23;11.57;;;7.70;94.90;;;;;;5013028;28;20133;-65
2021/05/07 03:07:01;;;;;;;14.90;12.38;;;7.40;95.90;;;;;;5044452;28;20512;-66
2021/05/07 03:09:27;;;;;;;14.20;12.73;;;7.30;96.00;;;;;;5016437;28;20084;-65
2021/05/07 03:11:54;;;;;;;17.10;12.15;;;7.30;96.00;;;;;;5012547;28;20082;-66
2021/05/07 03:14:20;;;;;;;13.48;11.93;;;7.50;95.80;;;;;;5018076;28;20042;-66
2021/05/07 03:16:46;;;;;;;16.20;11.68;;;7.70;95.20;;;;;;5044104;28;20069;-65
2021/05/07 03:19:12;;;;;;;13.52;11.85;;;7.80;95.20;;;;;;5031300;28;20073;-65
2021/05/07 03:21:37;;;;;;;14.90;12.18;;;8.00;94.50;;;;;;5011659;28;20124;-63
2021/05/07 03:24:05;;;;;;;17.15;12.93;;;8.00;94.60;;;;;;5018327;28;20038;-64
2021/05/07 03:26:30;;;;;;;15.07;12.88;;;8.00;94.60;;;;;;5028344;28;20049;-65
2021/05/07 03:28:56;;;;;;;16.30;12.30;;;7.70;95.10;;;;;;5026132;28;20046;-64
2021/05/07 03:31:22;;;;;;;15.02;12.82;;;7.80;94.80;;;;;;5024795;28;20052;-64
2021/05/07 03:33:48;;;;;;;14.07;12.57;;;7.90;94.40;;;;;;5030632;28;20037;-63
2021/05/07 03:36:15;;;;;;;15.23;13.45;;;7.80;94.70;;;;;;5042652;28;20046;-65
2021/05/07 03:38:40;;;;;;;16.40;13.98;;;7.70;95.20;;;;;;5052119;28;20051;-64
2021/05/07 03:41:06;;;;;;;16.67;12.88;;;7.70;95.30;;;;;;5010396;28;20390;-64
2021/05/07 03:43:32;;;;;;;15.80;13.32;;;7.80;95.20;;;;;;5012539;28;20053;-63
2021/05/07 03:45:58;;;;;;;16.92;13.18;;;7.80;95.10;;;;;;5011951;28;20034;-66
2021/05/07 03:48:23;;;;;;;17.60;14.98;;;7.60;95.20;;;;;;5044225;28;20116;-64
2021/05/07 03:50:54;;;;;;;20.70;15.20;;;7.40;95.50;;;;;;5011841;28;20038;-65
2021/05/07 03:53:21;;;;;;;19.05;14.25;;;7.40;95.40;;;;;;5013456;28;20405;-66
2021/05/07 03:55:47;;;;;;;18.58;15.48;;;7.30;95.70;;;;;;5013711;28;20034;-66
2021/05/07 03:58:14;;;;;;;20.73;16.38;;;7.20;95.40;;;;;;5013488;28;20026;-65
2021/05/07 04:00:40;;;;;;;19.67;15.73;;;7.10;94.70;;;;;;5011843;28;20041;-67
2021/05/07 04:03:06;;;;;;;17.13;14.23;;;7.10;95.10;;;;;;5014426;28;20040;-65
2021/05/07 04:05:32;;;;;;;23.00;16.55;;;6.90;94.50;;;;;;5012322;28;20046;-66
2021/05/07 04:10:29;;;;;;;22.20;15.50;;;6.70;95.30;;;;;;5015783;28;20053;-65
2021/05/07 04:15:20;;;;;;;16.98;13.88;;;6.90;94.80;;;;;;5015546;28;20030;-64
2021/05/07 04:17:45;;;;;;;17.05;13.73;;;7.00;94.40;;;;;;5018275;28;20029;-64
2021/05/07 04:20:12;;;;;;;17.83;13.43;;;6.90;94.10;;;;;;5023203;28;20055;-64
2021/05/07 04:22:38;;;;;;;19.98;14.10;;;6.90;94.40;;;;;;5024966;28;20030;-64
2021/05/07 04:25:08;;;;;;;17.38;13.35;;;7.10;94.00;;;;;;5031281;28;20393;-63
2021/05/07 04:27:34;;;;;;;17.38;13.07;;;7.10;94.10;;;;;;5025074;28;20033;-64
2021/05/07 04:30:00;;;;;;;17.67;13.25;;;6.60;94.40;;;;;;5029154;28;20030;-64
2021/05/07 04:32:26;;;;;;;17.33;13.07;;;6.60;94.30;;;;;;5030287;28;20041;-63
2021/05/07 04:34:51;;;;;;;18.23;13.40;;;6.50;94.30;;;;;;5038952;28;20152;-63
2021/05/07 04:37:17;;;;;;;18.23;13.82;;;6.60;94.30;;;;;;5016455;28;20042;-63
2021/05/07 04:39:42;;;;;;;15.38;12.15;;;6.60;94.30;;;;;;5027073;28;20619;-64
2021/05/07 04:42:08;;;;;;;18.95;13.88;;;6.70;94.10;;;;;;5046562;28;20048;-63
2021/05/07 04:44:34;;;;;;;18.15;15.00;;;6.60;94.20;;;;;;5027046;28;20106;-65
2021/05/07 04:46:59;;;;;;;17.48;13.38;;;6.70;94.10;;;;;;5032860;28;20555;-62
2021/05/07 04:49:26;;;;;;;15.50;13.00;;;6.70;94.50;;;;;;5052471;28;20038;-63
2021/05/07 04:51:52;;;;;;;17.63;13.82;;;6.60;94.20;;;;;;5014771;28;20034;-63
2021/05/07 04:54:18;;;;;;;16.60;12.75;;;6.70;94.20;;;;;;5027396;28;20092;-64
2021/05/07 04:56:43;;;;;;;18.75;14.35;;;6.80;94.10;;;;;;5025377;28;20071;-61
2021/05/07 04:59:09;;;;;;;17.25;13.93;;;6.80;93.50;;;;;;5030779;28;20048;-64
2021/05/07 05:01:35;;;;;;;15.73;12.50;;;6.70;94.20;;;;;;5014724;28;20038;-62
2021/05/07 05:04:00;;;;;;;17.27;12.35;;;6.90;93.90;;;;;;5022147;28;20086;-63
2021/05/07 05:06:26;;;;;;;18.02;12.15;;;6.90;94.00;;;;;;5014942;28;20405;-64
2021/05/07 05:08:51;;;;;;;17.95;12.40;;;6.90;93.80;;;;;;5020786;28;20378;-65
2021/05/07 05:11:17;;;;;;;14.80;11.90;;;6.70;94.50;;;;;;5015629;28;20375;-62
2021/05/07 05:13:43;;;;;;;16.60;13.15;;;6.90;94.40;;;;;;5021656;28;20104;-64
2021/05/07 05:16:08;;;;;;;15.73;12.10;;;7.00;93.90;;;;;;5021134;28;20041;-62
2021/05/07 05:18:36;;;;;;;13.98;11.63;;;7.00;94.70;;;;;;5017981;28;20022;-62
2021/05/07 05:21:03;;;;;;;16.77;12.43;;;7.20;94.10;;;;;;5023794;28;20386;-64
2021/05/07 05:23:30;;;;;;;17.30;12.05;;;7.30;94.20;;;;;;5014479;28;20489;-63
2021/05/07 05:25:56;;;;;;;16.58;12.35;;;7.30;93.80;;;;;;5021252;28;20160;-63
2021/05/07 05:28:22;;;;;;;14.18;10.52;;;7.30;93.60;;;;;;5031613;28;20030;-62
2021/05/07 05:30:49;;;;;;;14.00;10.13;;;7.40;93.20;;;;;;5038890;28;20503;-63
2021/05/07 05:33:14;;;;;;;13.70;9.77;;;7.50;93.40;;;;;;5029840;28;20033;-61
2021/05/07 05:35:41;;;;;;;11.07;9.55;;;7.40;93.30;;;;;;5038692;28;20049;-63
2021/05/07 05:38:07;;;;;;;10.68;9.00;;;7.30;93.50;;;;;;5014619;28;20041;-62
2021/05/07 05:40:33;;;;;;;9.75;8.48;;;7.20;93.90;;;;;;5038730;28;20045;-63
2021/05/07 05:42:59;;;;;;;8.20;7.30;;;7.10;94.00;;;;;;5024981;28;20037;-63
2021/05/07 05:45:25;;;;;;;8.63;7.72;;;7.10;93.90;;;;;;5019142;28;20053;-64
2021/05/07 05:48:08;;;;;;;7.63;6.80;;;7.00;94.30;;;;;;5056903;28;20032;-63
2021/05/07 05:50:37;;;;;;;7.75;6.78;;;7.00;94.50;;;;;;5024125;28;20096;-63
2021/05/07 05:53:04;;;;;;;7.70;6.82;;;7.00;94.40;;;;;;5034395;28;20030;-62
2021/05/07 05:55:30;;;;;;;9.02;7.20;;;7.00;94.60;;;;;;5034862;28;20022;-62
2021/05/07 05:57:56;;;;;;;8.43;7.35;;;7.00;95.10;;;;;;5027193;28;20028;-63
2021/05/07 06:00:22;;;;;;;7.32;6.45;;;6.90;95.30;;;;;;5035964;28;20381;-62
2021/05/07 06:02:48;;;;;;;8.82;6.88;;;7.10;94.50;;;;;;5030067;28;20117;-62
2021/05/07 06:05:15;;;;;;;7.13;6.38;;;7.10;94.80;;;;;;5049763;28;20088;-62
2021/05/07 06:07:41;;;;;;;8.18;6.40;;;7.00;95.10;;;;;;5033378;28;20037;-63
2021/05/07 06:10:09;;;;;;;5.22;4.60;;;6.90;95.00;;;;;;5016529;28;20512;-64
2021/05/07 06:12:34;;;;;;;5.00;4.50;;;6.70;93.10;;;;;;5028063;28;20123;-63
2021/05/07 06:15:00;;;;;;;3.95;3.55;;;6.60;91.90;;;;;;5023718;28;20485;-62
2021/05/07 06:17:27;;;;;;;3.47;3.10;;;6.20;92.20;;;;;;5042006;28;20041;-62
2021/05/07 06:19:52;;;;;;;3.28;2.83;;;6.20;92.80;;;;;;5047053;28;20558;-64
2021/05/07 06:22:19;;;;;;;3.30;2.78;;;6.00;92.70;;;;;;5022839;28;20073;-62
2021/05/07 06:24:45;;;;;;;3.30;2.75;;;6.00;92.70;;;;;;5041816;28;20048;-62
2021/05/07 06:27:10;;;;;;;3.33;2.90;;;6.20;92.10;;;;;;5014284;28;20046;-63
2021/05/07 06:29:36;;;;;;;3.30;3.00;;;6.20;92.90;;;;;;5036610;28;20036;-62
2021/05/07 06:32:02;;;;;;;4.00;2.95;;;6.20;92.20;;;;;;5027048;28;20034;-63
2021/05/07 06:34:27;;;;;;;4.32;2.70;;;6.10;92.40;;;;;;5013060;28;20038;-64
2021/05/07 06:36:53;;;;;;;3.78;3.05;;;6.00;91.90;;;;;;5033860;28;20374;-63
2021/05/07 06:39:18;;;;;;;3.03;2.67;;;5.60;92.60;;;;;;5020333;28;20052;-62
2021/05/07 06:41:44;;;;;;;4.10;3.33;;;5.60;92.60;;;;;;5030883;28;20041;-63
2021/05/07 06:44:11;;;;;;;3.53;2.97;;;5.60;92.90;;;;;;5029922;28;20063;-63
2021/05/07 06:46:37;;;;;;;3.58;3.08;;;5.70;93.00;;;;;;5031498;28;20034;-63
2021/05/07 06:49:03;;;;;;;3.65;3.22;;;5.70;92.10;;;;;;5029211;28;20128;-63
2021/05/07 06:51:28;;;;;;;3.85;3.20;;;5.70;92.40;;;;;;5039570;28;20033;-62
2021/05/07 06:53:55;;;;;;;3.67;2.90;;;5.60;92.80;;;;;;5017300;28;20072;-63
2021/05/07 06:56:21;;;;;;;4.47;3.20;;;5.70;92.30;;;;;;5034497;28;20366;-63
2021/05/07 06:58:47;;;;;;;3.78;3.15;;;5.50;92.80;;;;;;5031200;28;20497;-62
2021/05/07 07:01:13;;;;;;;4.25;3.42;;;5.60;92.50;;;;;;5038054;28;20057;-64
2021/05/07 07:03:38;;;;;;;3.92;3.35;;;5.50;92.90;;;;;;5026990;28;20482;-63
2021/05/07 07:06:04;;;;;;;14.48;4.93;;;5.70;92.80;;;;;;5038630;28;20422;-63
2021/05/07 07:08:29;;;;;;;13.10;4.75;;;5.80;92.80;;;;;;5012623;28;20401;-63
2021/05/07 07:10:56;;;;;;;19.65;7.22;;;6.00;92.50;;;;;;5028113;28;20535;-63
2021/05/07 07:13:21;;;;;;;7.15;4.13;;;5.90;92.80;;;;;;5012617;28;20094;-63
2021/05/07 07:15:47;;;;;;;6.28;4.63;;;5.90;92.20;;;;;;5026709;28;20069;-62
2021/05/07 07:18:17;;;;;;;9.75;4.88;;;5.80;91.90;;;;;;5026831;28;20037;-62
2021/05/07 07:20:43;;;;;;;7.60;4.20;;;5.70;92.20;;;;;;5024467;28;20049;-63
2021/05/07 07:23:08;;;;;;;4.80;4.03;;;5.60;92.50;;;;;;5027835;28;20048;-63
2021/05/07 07:25:34;;;;;;;11.73;5.60;;;5.90;91.80;;;;;;5014357;28;20104;-63
2021/05/07 07:27:59;;;;;;;11.75;5.78;;;5.70;91.90;;;;;;5042104;28;20087;-64
2021/05/07 07:30:25;;;;;;;6.55;5.05;;;5.70;92.30;;;;;;5020909;28;20046;-62
2021/05/07 07:32:50;;;;;;;5.28;4.78;;;5.80;92.20;;;;;;5030075;28;20029;-63
2021/05/07 07:35:18;;;;;;;5.90;4.93;;;5.90;91.80;;;;;;5019677;28;20343;-65
2021/05/07 07:37:44;;;;;;;6.18;5.10;;;5.90;91.90;;;;;;5036321;28;20032;-62
2021/05/07 07:40:10;;;;;;;5.88;4.90;;;5.80;92.80;;;;;;5032517;28;20037;-62
2021/05/07 07:42:35;;;;;;;9.25;6.00;;;6.00;92.10;;;;;;5052319;28;20124;-64
2021/05/07 07:45:01;;;;;;;5.28;4.63;;;6.00;92.20;;;;;;5017264;28;20115;-64
2021/05/07 07:47:27;;;;;;;5.68;5.07;;;6.20;91.60;;;;;;5043048;28;20037;-62
2021/05/07 07:49:52;;;;;;;7.80;5.10;;;6.30;91.70;;;;;;5026572;28;20072;-62
2021/05/07 07:52:18;;;;;;;6.00;5.50;;;6.30;92.00;;;;;;5053338;28;20025;-65
2021/05/07 07:54:44;;;;;;;5.07;4.60;;;6.50;91.90;;;;;;5029780;28;20025;-62
2021/05/07 07:57:09;;;;;;;5.35;4.70;;;6.20;91.60;;;;;;5037561;28;20041;-62
2021/05/07 07:59:35;;;;;;;5.68;5.15;;;6.20;92.10;;;;;;5018470;28;20050;-64
2021/05/07 08:02:01;;;;;;;4.05;3.63;;;6.20;92.10;;;;;;5041918;28;20440;-64
2021/05/07 08:04:27;;;;;;;4.55;4.15;;;6.10;91.80;;;;;;5020362;28;20116;-63
2021/05/07 08:06:52;;;;;;;4.28;3.88;;;6.40;91.40;;;;;;5024269;28;20396;-61
2021/05/07 08:09:18;;;;;;;5.05;3.80;;;6.50;90.80;;;;;;5037635;28;20040;-62
2021/05/07 08:11:43;;;;;;;4.40;4.00;;;6.60;91.00;;;;;;5037607;28;20025;-62
2021/05/07 08:14:09;;;;;;;6.18;4.45;;;6.60;90.70;;;;;;5043651;28;20630;-63
2021/05/07 08:16:35;;;;;;;6.75;4.57;;;6.50;91.00;;;;;;5042139;28;20041;-63
2021/05/07 08:19:01;;;;;;;4.68;4.28;;;6.40;91.20;;;;;;5034132;28;20036;-65
2021/05/07 08:21:28;;;;;;;8.13;4.80;;;6.50;91.00;;;;;;5029591;28;20493;-61
2021/05/07 08:23:55;;;;;;;6.20;5.60;;;6.40;91.20;;;;;;5033223;28;20049;-61
2021/05/07 08:26:21;;;;;;;10.15;6.28;;;6.30;91.50;;;;;;5021572;28;20065;-62
2021/05/07 08:28:47;;;;;;;8.27;6.30;;;6.40;91.10;;;;;;5033871;28;20034;-62
2021/05/07 08:31:13;;;;;;;8.15;6.70;;;6.30;91.30;;;;;;5052898;28;20044;-63
2021/05/07 08:33:38;;;;;;;8.45;7.60;;;6.50;91.40;;;;;;5034837;28;20178;-61
2021/05/07 08:36:04;;;;;;;9.60;7.25;;;6.70;90.80;;;;;;5031542;28;20030;-62
2021/05/07 08:38:30;;;;;;;10.82;7.40;;;6.80;90.90;;;;;;5018368;28;20073;-61
2021/05/07 08:40:56;;;;;;;8.65;7.40;;;6.90;90.40;;;;;;5047402;28;20026;-60
2021/05/07 08:43:22;;;;;;;8.07;7.25;;;6.80;90.30;;;;;;5015621;28;20095;-58
2021/05/07 08:45:50;;;;;;;12.35;8.10;;;6.80;90.30;;;;;;5021756;28;20120;-61
2021/05/07 08:48:17;;;;;;;8.27;7.25;;;6.80;90.30;;;;;;5033659;28;20160;-62
2021/05/07 08:50:50;;;;;;;10.30;7.47;;;6.90;90.10;;;;;;5028951;28;20034;-61
2021/05/07 08:53:17;;;;;;;12.57;7.57;;;6.90;89.90;;;;;;5017637;28;20026;-63
2021/05/07 08:55:46;;;;;;;17.10;8.00;;;6.90;90.20;;;;;;5032320;28;20048;-63
2021/05/07 08:58:12;;;;;;;9.45;7.20;;;7.10;89.40;;;;;;5041142;28;20029;-62
2021/05/07 09:00:38;;;;;;;17.73;8.60;;;7.20;88.70;;;;;;5031221;28;20037;-62
2021/05/07 09:03:09;;;;;;;7.75;6.10;;;7.50;87.20;;;;;;5029027;28;20060;-62
2021/05/07 09:05:36;;;;;;;8.27;6.32;;;7.80;85.80;;;;;;5031791;28;20120;-62
2021/05/07 09:08:02;;;;;;;8.60;6.70;;;7.80;85.40;;;;;;5028766;28;20033;-62
2021/05/07 09:10:32;;;;;;;11.50;7.82;;;7.60;85.70;;;;;;5033754;28;20451;-63
2021/05/07 09:12:59;;;;;;;8.60;7.15;;;7.70;85.90;;;;;;5039671;28;20435;-62
2021/05/07 09:15:47;;;;;;;10.40;6.75;;;7.60;86.00;;;;;;5038785;28;20056;-62
2021/05/07 09:18:17;;;;;;;7.15;6.30;;;7.90;86.10;;;;;;5014591;28;20021;-62
2021/05/07 09:20:43;;;;;;;7.55;6.70;;;8.20;84.00;;;;;;5029480;28;20089;-62
2021/05/07 09:23:12;;;;;;;7.82;6.57;;;7.70;85.30;;;;;;5020375;28;20064;-62
2021/05/07 09:25:45;;;;;;;9.60;6.78;;;7.90;83.90;;;;;;5023293;28;20042;-63
2021/05/07 09:28:14;;;;;;;7.32;6.63;;;8.20;83.50;;;;;;5027656;28;20121;-62
2021/05/07 09:30:40;;;;;;;8.00;6.57;;;8.50;81.30;;;;;;5033361;28;20029;-62
2021/05/07 09:33:11;;;;;;;8.07;6.20;;;8.70;80.60;;;;;;5031993;28;20045;-63
2021/05/07 09:35:38;;;;;;;7.53;6.55;;;8.70;81.30;;;;;;5020947;28;20026;-63
2021/05/07 09:38:12;;;;;;;6.85;6.15;;;8.80;81.80;;;;;;5015571;28;20037;-62
2021/05/07 09:40:40;;;;;;;6.13;5.45;;;8.90;80.20;;;;;;5018709;28;20030;-63
2021/05/07 09:43:09;;;;;;;5.75;5.15;;;8.90;80.60;;;;;;5025919;28;20129;-62
2021/05/07 09:45:35;;;;;;;6.55;5.82;;;9.00;79.10;;;;;;5014314;28;20096;-63
2021/05/07 09:48:01;;;;;;;5.78;5.15;;;9.20;78.90;;;;;;5045343;28;20136;-63
2021/05/07 09:50:40;;;;;;;5.90;4.88;;;9.10;77.10;;;;;;5015175;28;20066;-61
2021/05/07 09:53:38;;;;;;;7.13;5.28;;;9.00;77.60;;;;;;5014161;28;20489;-59
2021/05/07 09:56:15;;;;;;;5.35;4.70;;;9.10;74.40;;;;;;5014888;28;20038;-61
2021/05/07 09:58:41;;;;;;;18.77;6.90;;;8.90;73.70;;;;;;5017976;28;20042;-62
2021/05/07 10:01:07;;;;;;;16.02;5.57;;;9.20;76.50;;;;;;5028772;28;20108;-58
2021/05/07 10:03:33;;;;;;;10.38;6.47;;;9.50;71.80;;;;;;5026004;28;20038;-62
2021/05/07 10:06:00;;;;;;;8.55;5.40;;;9.30;68.50;;;;;;5029389;28;20033;-61
2021/05/07 10:08:25;;;;;;;16.33;5.90;;;9.10;70.20;;;;;;5024974;28;20045;-62
2021/05/07 10:10:57;;;;;;;7.70;6.28;;;9.00;71.30;;;;;;5021299;28;20444;-62
2021/05/07 10:13:28;;;;;;;8.52;7.03;;;9.00;75.70;;;;;;5028149;28;20037;-62
2021/05/07 10:16:05;;;;;;;7.45;6.45;;;8.90;77.60;;;;;;5035738;28;20065;-59
2021/05/07 10:18:32;;;;;;;7.53;6.03;;;9.10;76.90;;;;;;5018073;28;20033;-62
2021/05/07 10:21:09;;;;;;;8.02;7.15;;;8.90;78.30;;;;;;5031220;28;20029;-60
2021/05/07 10:23:36;;;;;;;7.63;6.82;;;8.90;79.10;;;;;;5025034;28;20038;-59
2021/05/07 10:26:08;;;;;;;9.68;6.95;;;8.80;79.30;;;;;;5048659;28;20037;-61
2021/05/07 10:28:47;;;;;;;8.32;7.38;;;9.00;79.10;;;;;;5033704;28;20101;-61
2021/05/07 10:31:17;;;;;;;8.60;6.40;;;9.00;78.70;;;;;;5031224;28;20647;-61
2021/05/07 10:33:44;;;;;;;7.35;5.97;;;9.10;77.20;;;;;;5018151;28;20042;-61
2021/05/07 10:36:09;;;;;;;7.30;6.07;;;9.30;76.50;;;;;;5026482;28;20026;-61
2021/05/07 10:38:46;;;;;;;6.50;5.32;;;9.60;75.40;;;;;;5045320;28;20046;-62
2021/05/07 10:41:12;;;;;;;6.40;5.32;;;9.50;73.60;;;;;;5045918;28;20034;-62
2021/05/07 10:43:45;;;;;;;7.70;4.88;;;9.30;72.90;;;;;;5037984;28;20083;-61
2021/05/07 10:46:23;;;;;;;5.05;3.97;;;9.20;70.50;;;;;;5018257;28;20022;-60
2021/05/07 10:48:53;;;;;;;8.50;4.82;;;9.00;68.30;;;;;;5036224;28;20033;-61
2021/05/07 10:51:20;;;;;;;5.68;4.00;;;9.10;69.00;;;;;;5042327;28;20115;-60
2021/05/07 10:53:45;;;;;;;13.43;5.07;;;9.30;68.30;;;;;;5014181;28;20560;-62
2021/05/07 10:56:22;;;;;;;4.55;3.40;;;9.30;67.60;;;;;;5028774;28;20037;-61
2021/05/07 10:58:52;;;;;;;5.30;3.15;;;9.30;63.90;;;;;;5036503;28;20128;-61
2021/05/07 11:01:28;;;;;;;5.32;3.47;;;9.20;64.40;;;;;;5034390;28;20108;-61
2021/05/07 11:04:03;;;;;;;4.45;2.90;;;9.40;63.90;;;;;;5049607;28;20033;-61
2021/05/07 11:06:36;;;;;;;5.80;3.53;;;9.50;63.90;;;;;;5031557;28;20030;-60
2021/05/07 11:09:16;;;;;;;7.60;3.20;;;9.80;66.00;;;;;;5020828;28;20121;-60
2021/05/07 11:11:42;;;;;;;6.05;3.35;;;10.20;64.10;;;;;;5017061;28;20036;-60
2021/05/07 11:14:11;;;;;;;5.93;3.33;;;10.10;63.70;;;;;;5048351;28;20473;-59
2021/05/07 11:16:38;;;;;;;5.63;3.30;;;10.00;61.10;;;;;;5031213;28;20030;-62
2021/05/07 11:19:04;;;;;;;13.85;3.90;;;9.50;62.00;;;;;;5028027;28;20036;-61
2021/05/07 11:21:30;;;;;;;5.03;2.67;;;9.60;62.30;;;;;;5038337;28;20045;-60
2021/05/07 11:23:56;;;;;;;3.67;2.78;;;9.50;60.80;;;;;;5028754;28;20053;-60
2021/05/07 11:26:34;;;;;;;3.63;2.72;;;9.50;60.90;;;;;;5040872;28;20041;-60
2021/05/07 11:28:59;;;;;;;3.42;2.65;;;9.70;62.10;;;;;;5015431;28;20175;-58
2021/05/07 11:31:28;;;;;;;4.75;2.63;;;9.90;62.10;;;;;;5034116;28;20120;-62
2021/05/07 11:33:54;;;;;;;3.10;2.78;;;10.20;60.80;;;;;;5024317;28;20033;-60
2021/05/07 11:36:19;;;;;;;4.93;3.13;;;10.30;61.60;;;;;;5026009;28;20037;-60
2021/05/07 11:38:45;;;;;;;4.22;3.50;;;10.00;61.90;;;;;;5019964;28;20038;-60
2021/05/07 11:41:19;;;;;;;3.88;3.10;;;10.00;61.40;;;;;;5031614;28;20048;-58
2021/05/07 11:43:45;;;;;;;3.80;3.30;;;9.90;62.90;;;;;;5028945;28;20200;-58
2021/05/07 11:46:11;;;;;;;7.93;5.57;;;9.90;64.30;;;;;;5023712;28;20033;-61
2021/05/07 11:48:37;;;;;;;7.65;6.25;;;10.00;68.20;;;;;;5013917;28;20037;-59
2021/05/07 11:51:08;;;;;;;7.90;6.40;;;10.00;68.80;;;;;;5019646;28;20041;-57
2021/05/07 11:53:37;;;;;;;6.22;5.63;;;10.10;69.70;;;;;;5024583;28;20046;-62
2021/05/07 11:56:04;;;;;;;7.07;5.50;;;9.70;68.80;;;;;;5031401;28;20030;-61
2021/05/07 11:58:35;;;;;;;6.85;6.10;;;9.50;69.70;;;;;;5014409;28;20038;-61
2021/05/07 12:01:05;;;;;;;6.53;5.82;;;9.30;69.30;;;;;;5012435;28;20445;-62
2021/05/07 12:03:39;;;;;;;5.65;4.28;;;9.40;70.40;;;;;;5026369;28;20030;-61
2021/05/07 12:06:16;;;;;;;5.03;3.83;;;9.70;67.30;;;;;;5012272;28;20390;-60
2021/05/07 12:08:42;;;;;;;5.25;4.15;;;9.90;65.90;;;;;;5019642;28;20029;-59
2021/05/07 12:11:12;;;;;;;4.93;4.43;;;9.70;66.60;;;;;;5009898;28;20105;-60
2021/05/07 12:13:38;;;;;;;4.82;4.22;;;10.00;67.50;;;;;;5018919;28;20034;-59
2021/05/07 12:16:04;;;;;;;4.80;3.85;;;10.50;66.80;;;;;;5011825;28;20026;-61
2021/05/07 12:18:34;;;;;;;4.32;3.65;;;10.90;66.50;;;;;;5020577;28;20467;-62
2021/05/07 12:21:01;;;;;;;4.57;3.50;;;11.10;64.00;;;;;;5042237;28;20580;-61
2021/05/07 12:23:40;;;;;;;4.72;4.13;;;11.00;64.70;;;;;;5021177;28;20042;-61
2021/05/07 12:26:05;;;;;;;6.10;5.50;;;11.30;63.70;;;;;;5028128;28;20045;-62
2021/05/07 12:28:31;;;;;;;5.40;4.90;;;11.00;63.80;;;;;;5027687;28;20037;-60
2021/05/07 12:30:57;;;;;;;6.63;4.97;;;10.80;65.20;;;;;;5026415;28;20388;-62
2021/05/07 12:33:25;;;;;;;6.18;4.97;;;10.90;65.10;;;;;;5030233;28;20033;-61
2021/05/07 12:35:52;;;;;;;6.65;4.10;;;10.90;65.50;;;;;;5018253;28;20034;-58
2021/05/07 12:38:25;;;;;;;5.03;4.45;;;11.10;62.40;;;;;;5028967;28;20036;-59
2021/05/07 12:41:08;;;;;;;4.47;4.07;;;11.20;59.40;;;;;;5017321;28;20025;-58
2021/05/07 12:43:37;;;;;;;5.40;4.55;;;11.00;59.90;;;;;;5025142;28;20114;-59
2021/05/07 12:46:08;;;;;;;5.35;4.45;;;11.10;60.20;;;;;;5023771;28;20463;-60
2021/05/07 12:48:34;;;;;;;5.25;4.18;;;11.20;61.20;;;;;;5028010;28;20030;-62
2021/05/07 12:51:10;;;;;;;5.22;4.10;;;11.10;61.20;;;;;;5017691;28;20083;-62
2021/05/07 12:53:41;;;;;;;5.15;4.13;;;10.80;62.10;;;;;;5042045;28;20042;-60